createdAt,value
2017-07-26T00:00:14.546Z,13.31
2017-07-26T00:01:28.913Z,13.36
2017-07-26T00:02:44.554Z,13.38
2017-07-26T00:04:00.025Z,13.31
2017-07-26T00:05:15.487Z,13.34
2017-07-26T00:06:31.194Z,13.36
2017-07-26T00:07:46.625Z,13.36
2017-07-26T00:09:01.204Z,13.33
2017-07-26T00:10:16.840Z,13.36
2017-07-26T00:11:32.216Z,13.38
2017-07-26T00:12:47.822Z,13.36
2017-07-26T00:14:03.263Z,13.31
2017-07-26T00:15:18.748Z,13.36
2017-07-26T00:16:34.547Z,13.37
2017-07-26T00:17:49.969Z,13.4
2017-07-26T00:19:05.391Z,13.41
2017-07-26T00:20:20.511Z,13.34
2017-07-26T00:21:36.234Z,13.41
2017-07-26T00:22:51.679Z,13.44
2017-07-26T00:24:07.201Z,13.41
2017-07-26T00:25:21.261Z,13.51
2017-07-26T00:26:36.943Z,13.41
2017-07-26T00:27:52.436Z,13.44
2017-07-26T00:29:06.631Z,13.48
2017-07-26T00:30:21.688Z,13.46
2017-07-26T00:31:37.424Z,13.54
2017-07-26T00:32:52.910Z,13.46
2017-07-26T00:34:08.420Z,13.54
2017-07-26T00:35:22.536Z,13.52
2017-07-26T00:36:38.224Z,13.54
2017-07-26T00:37:54.083Z,13.49
2017-07-26T00:39:09.612Z,13.52
2017-07-26T00:40:25.043Z,13.63
2017-07-26T00:41:39.296Z,13.56
2017-07-26T00:42:54.735Z,13.51
2017-07-26T00:44:10.192Z,13.54
2017-07-26T00:45:24.358Z,13.58
2017-07-26T00:46:40.072Z,13.59
2017-07-26T00:47:55.485Z,13.52
2017-07-26T00:49:10.986Z,13.63
2017-07-26T00:50:25.161Z,13.59
2017-07-26T00:51:40.838Z,13.64
2017-07-26T00:52:56.283Z,13.56
2017-07-26T00:54:11.715Z,13.67
2017-07-26T00:55:25.916Z,13.73
2017-07-26T00:56:41.603Z,13.64
2017-07-26T00:57:57.030Z,13.71
2017-07-26T00:59:12.505Z,13.74
2017-07-26T01:00:27.917Z,13.64
2017-07-26T01:01:43.624Z,13.69
2017-07-26T01:02:59.144Z,13.7
2017-07-26T01:04:14.787Z,13.69
2017-07-26T01:05:30.296Z,13.73
2017-07-26T01:06:46.021Z,13.67
2017-07-26T01:08:01.474Z,13.71
2017-07-26T01:09:16.916Z,13.73
2017-07-26T01:10:32.380Z,13.67
2017-07-26T01:11:47.853Z,13.67
2017-07-26T01:13:03.351Z,13.76
2017-07-26T01:14:18.808Z,13.64
2017-07-26T01:15:34.253Z,13.73
2017-07-26T01:16:49.995Z,13.71
2017-07-26T01:18:05.459Z,13.59
2017-07-26T01:19:20.930Z,13.61
2017-07-26T01:20:36.380Z,13.56
2017-07-26T01:21:52.069Z,13.55
2017-07-26T01:23:07.534Z,13.64
2017-07-26T01:24:22.976Z,13.67
2017-07-26T01:25:38.432Z,13.69
2017-07-26T01:26:54.408Z,13.59
2017-07-26T01:28:09.888Z,13.61
2017-07-26T01:29:25.357Z,13.69
2017-07-26T01:30:40.950Z,13.66
2017-07-26T01:31:56.688Z,13.64
2017-07-26T01:33:12.089Z,13.56
2017-07-26T01:34:27.791Z,13.63
2017-07-26T01:35:43.487Z,13.64
2017-07-26T01:36:59.181Z,13.59
2017-07-26T01:38:14.605Z,13.61
2017-07-26T01:39:30.079Z,13.63
2017-07-26T01:40:45.554Z,13.55
2017-07-26T01:42:01.278Z,13.69
2017-07-26T01:43:17.000Z,13.69
2017-07-26T01:44:32.475Z,13.64
2017-07-26T01:45:46.704Z,13.69
2017-07-26T01:47:02.598Z,13.61
2017-07-26T01:48:18.061Z,13.64
2017-07-26T01:49:32.180Z,13.64
2017-07-26T01:50:47.823Z,13.55
2017-07-26T01:52:03.510Z,13.63
2017-07-26T01:53:18.967Z,13.61
2017-07-26T01:58:42.653Z,13.63
2017-07-26T01:59:53.114Z,13.59
2017-07-26T02:01:03.714Z,13.59
2017-07-26T02:02:14.221Z,13.63
2017-07-26T02:03:24.755Z,13.54
2017-07-26T02:04:35.223Z,13.55
2017-07-26T02:05:45.677Z,13.55
2017-07-26T02:06:56.161Z,13.58
2017-07-26T02:08:06.642Z,13.67
2017-07-26T02:09:17.359Z,13.63
2017-07-26T02:10:27.810Z,13.56
2017-07-26T02:11:38.298Z,13.63
2017-07-26T02:12:48.775Z,13.71
2017-07-26T02:13:59.243Z,13.56
2017-07-26T02:15:09.933Z,13.56
2017-07-26T02:16:20.379Z,13.61
2017-07-26T02:17:30.952Z,13.7
2017-07-26T02:18:41.085Z,13.67
2017-07-26T02:19:51.535Z,13.56
2017-07-26T02:21:02.260Z,13.71
2017-07-26T02:22:12.706Z,13.58
2017-07-26T02:23:23.229Z,13.58
2017-07-26T02:24:33.677Z,13.63
2017-07-26T02:25:44.141Z,13.59
2017-07-26T02:26:54.865Z,13.63
2017-07-26T02:28:05.323Z,13.55
2017-07-26T02:29:15.857Z,13.59
2017-07-26T02:30:26.324Z,13.61
2017-07-26T02:31:36.928Z,13.61
2017-07-26T02:32:47.622Z,13.64
2017-07-26T02:33:58.093Z,13.64
2017-07-26T02:35:08.583Z,13.66
2017-07-26T02:36:19.030Z,13.63
2017-07-26T02:37:29.545Z,13.63
2017-07-26T02:38:40.333Z,13.59
2017-07-26T02:39:50.812Z,13.59
2017-07-26T02:41:01.273Z,13.61
2017-07-26T02:42:11.832Z,13.61
2017-07-26T02:43:22.320Z,13.66
2017-07-26T02:44:33.131Z,13.63
2017-07-26T02:45:43.861Z,13.61
2017-07-26T02:46:54.334Z,13.61
2017-07-26T02:48:04.922Z,13.64
2017-07-26T02:49:15.492Z,13.59
2017-07-26T02:50:26.313Z,13.61
2017-07-26T02:51:36.556Z,13.63
2017-07-26T02:52:47.038Z,13.71
2017-07-26T02:53:57.601Z,13.7
2017-07-26T02:55:07.787Z,13.7
2017-07-26T02:56:18.530Z,13.71
2017-07-26T02:57:28.985Z,13.64
2017-07-26T02:58:39.492Z,13.71
2017-07-26T02:59:50.070Z,13.69
2017-07-26T03:01:00.524Z,13.59
2017-07-26T03:02:11.527Z,13.69
2017-07-26T03:03:22.003Z,13.69
2017-07-26T03:04:32.433Z,13.61
2017-07-26T03:05:42.991Z,13.55
2017-07-26T03:06:53.445Z,13.61
2017-07-26T03:08:04.374Z,13.56
2017-07-26T03:09:14.868Z,13.63
2017-07-26T03:10:25.347Z,13.64
2017-07-26T03:11:35.794Z,13.59
2017-07-26T03:12:46.405Z,13.59
2017-07-26T03:13:57.096Z,13.58
2017-07-26T03:15:07.563Z,13.73
2017-07-26T03:16:18.262Z,13.63
2017-07-26T03:17:28.730Z,13.59
2017-07-26T03:18:38.892Z,13.71
2017-07-26T03:19:49.659Z,13.69
2017-07-26T03:21:00.121Z,13.71
2017-07-26T03:22:10.585Z,13.74
2017-07-26T03:23:21.125Z,13.7
2017-07-26T03:24:31.600Z,13.76
2017-07-26T03:25:42.301Z,13.74
2017-07-26T03:26:52.819Z,13.74
2017-07-26T03:28:03.358Z,13.7
2017-07-26T03:29:13.869Z,13.67
2017-07-26T03:30:24.315Z,13.69
2017-07-26T03:31:35.076Z,13.76
2017-07-26T03:32:45.663Z,13.61
2017-07-26T03:33:56.130Z,13.64
2017-07-26T03:35:06.583Z,13.59
2017-07-26T03:36:17.278Z,13.61
2017-07-26T03:37:28.018Z,13.59
2017-07-26T03:38:38.479Z,13.7
2017-07-26T03:39:48.636Z,13.74
2017-07-26T03:40:59.143Z,13.69
2017-07-26T03:42:09.595Z,13.73
2017-07-26T03:43:20.298Z,13.69
2017-07-26T03:44:30.775Z,13.76
2017-07-26T03:45:41.245Z,13.74
2017-07-26T03:46:51.680Z,13.71
2017-07-26T03:48:02.147Z,13.66
2017-07-26T03:49:12.901Z,13.7
2017-07-26T03:50:23.349Z,13.71
2017-07-26T03:51:33.859Z,13.58
2017-07-26T03:52:44.320Z,13.66
2017-07-26T03:53:54.771Z,13.59
2017-07-26T03:55:05.479Z,13.69
2017-07-26T03:56:15.949Z,13.63
2017-07-26T03:57:26.087Z,13.7
2017-07-26T03:58:36.544Z,13.7
2017-07-26T03:59:47.033Z,13.71
2017-07-26T04:00:57.752Z,13.73
2017-07-26T04:02:07.911Z,13.73
2017-07-26T04:03:18.362Z,13.66
2017-07-26T04:04:28.473Z,13.73
2017-07-26T04:05:38.976Z,13.69
2017-07-26T04:06:49.678Z,13.71
2017-07-26T04:08:00.123Z,13.77
2017-07-26T04:09:10.610Z,13.74
2017-07-26T04:10:21.069Z,13.7
2017-07-26T04:11:31.751Z,13.71
2017-07-26T04:12:42.441Z,13.69
2017-07-26T04:13:53.205Z,13.69
2017-07-26T04:15:04.139Z,13.71
2017-07-26T04:16:14.598Z,13.58
2017-07-26T04:17:25.116Z,13.7
2017-07-26T04:18:35.812Z,13.56
2017-07-26T04:19:46.278Z,13.58
2017-07-26T04:20:56.500Z,13.64
2017-07-26T04:22:07.080Z,13.7
2017-07-26T04:23:17.569Z,13.59
2017-07-26T04:24:28.298Z,13.67
2017-07-26T04:25:38.456Z,13.63
2017-07-26T04:26:49.018Z,13.61
2017-07-26T04:27:59.477Z,13.67
2017-07-26T04:29:09.942Z,13.56
2017-07-26T04:30:20.655Z,13.56
2017-07-26T04:31:31.104Z,13.63
2017-07-26T04:32:41.602Z,13.56
2017-07-26T04:33:52.314Z,13.66
2017-07-26T04:35:02.758Z,13.59
2017-07-26T04:36:13.493Z,13.56
2017-07-26T04:37:23.949Z,13.56
2017-07-26T04:38:34.397Z,13.63
2017-07-26T04:39:44.875Z,13.59
2017-07-26T04:40:55.025Z,13.59
2017-07-26T04:42:05.755Z,13.54
2017-07-26T04:43:15.914Z,13.58
2017-07-26T04:44:26.374Z,13.66
2017-07-26T04:45:36.816Z,13.63
2017-07-26T04:46:47.433Z,13.59
2017-07-26T04:47:58.193Z,13.61
2017-07-26T04:49:08.654Z,13.74
2017-07-26T04:50:19.222Z,13.66
2017-07-26T04:51:29.695Z,13.73
2017-07-26T04:52:40.173Z,13.7
2017-07-26T04:53:50.889Z,13.76
2017-07-26T04:55:01.350Z,13.71
2017-07-26T04:56:11.926Z,13.79
2017-07-26T04:57:22.469Z,13.77
2017-07-26T04:58:32.673Z,13.77
2017-07-26T04:59:43.390Z,13.79
2017-07-26T05:00:53.418Z,13.82
2017-07-26T05:02:03.880Z,13.85
2017-07-26T05:03:14.365Z,13.84
2017-07-26T05:04:24.867Z,13.77
2017-07-26T05:05:35.572Z,13.81
2017-07-26T05:06:46.065Z,13.82
2017-07-26T05:07:56.556Z,13.86
2017-07-26T05:09:07.020Z,13.89
2017-07-26T05:10:17.486Z,13.81
2017-07-26T05:11:28.180Z,13.84
2017-07-26T05:12:38.346Z,13.94
2017-07-26T05:13:48.786Z,13.89
2017-07-26T05:14:59.241Z,13.85
2017-07-26T05:16:09.795Z,14
2017-07-26T05:17:20.441Z,14.02
2017-07-26T05:18:30.907Z,13.89
2017-07-26T05:19:41.385Z,14
2017-07-26T05:20:51.837Z,14.04
2017-07-26T05:22:02.364Z,14.02
2017-07-26T05:23:13.109Z,13.99
2017-07-26T05:24:23.814Z,14
2017-07-26T05:25:34.305Z,14.06
2017-07-26T05:26:44.875Z,14.06
2017-07-26T05:27:55.335Z,14.13
2017-07-26T05:29:37.815Z,14.02
2017-07-26T05:30:48.294Z,14.06
2017-07-26T05:31:58.784Z,14.04
2017-07-26T05:33:09.298Z,14.14
2017-07-26T05:34:20.141Z,14.19
2017-07-26T05:35:30.590Z,14.18
2017-07-26T05:36:41.060Z,14.1
2017-07-26T05:37:51.620Z,14.14
2017-07-26T05:39:02.233Z,14.14
2017-07-26T05:40:12.972Z,14.16
2017-07-26T05:41:23.083Z,14.07
2017-07-26T05:42:33.552Z,14.07
2017-07-26T05:43:44.067Z,14.14
2017-07-26T05:44:54.569Z,14.14
2017-07-26T05:46:05.348Z,14.13
2017-07-26T05:47:16.051Z,14.14
2017-07-26T05:48:26.507Z,14.11
2017-07-26T05:49:36.963Z,14.13
2017-07-26T05:50:47.468Z,14.11
2017-07-26T05:51:58.158Z,14.16
2017-07-26T05:53:08.632Z,14.14
2017-07-26T05:54:19.941Z,14.1
2017-07-26T05:55:30.400Z,14.13
2017-07-26T05:56:41.162Z,14.18
2017-07-26T05:57:51.988Z,14.14
2017-07-26T05:59:02.632Z,14.19
2017-07-26T06:00:13.088Z,14.14
2017-07-26T06:01:23.646Z,14.19
2017-07-26T06:02:34.108Z,14.16
2017-07-26T06:03:44.878Z,14.16
2017-07-26T06:04:55.426Z,14.11
2017-07-26T06:06:05.889Z,14.16
2017-07-26T06:07:16.357Z,14.18
2017-07-26T06:08:26.820Z,14.14
2017-07-26T06:09:37.564Z,14.18
2017-07-26T06:10:48.042Z,14.19
2017-07-26T06:11:58.530Z,14.21
2017-07-26T06:13:09.056Z,14.24
2017-07-26T06:14:19.510Z,14.24
2017-07-26T06:15:30.265Z,14.24
2017-07-26T06:16:40.717Z,14.25
2017-07-26T06:17:51.217Z,14.25
2017-07-26T06:19:01.675Z,14.21
2017-07-26T06:20:12.155Z,14.26
2017-07-26T06:21:22.859Z,14.25
2017-07-26T06:22:33.022Z,14.26
2017-07-26T06:23:43.492Z,14.36
2017-07-26T06:24:53.680Z,14.39
2017-07-26T06:26:04.138Z,14.37
2017-07-26T06:27:14.721Z,14.36
2017-07-26T06:28:25.214Z,14.28
2017-07-26T06:29:35.899Z,14.26
2017-07-26T06:30:46.588Z,14.28
2017-07-26T06:31:57.117Z,14.43
2017-07-26T06:33:07.916Z,14.47
2017-07-26T06:34:18.377Z,14.26
2017-07-26T06:35:28.839Z,14.26
2017-07-26T06:36:39.029Z,14.29
2017-07-26T06:37:49.496Z,14.31
2017-07-26T06:38:59.936Z,14.26
2017-07-26T06:40:10.612Z,14.26
2017-07-26T06:41:21.071Z,14.25
2017-07-26T06:42:31.808Z,14.21
2017-07-26T06:43:42.276Z,14.28
2017-07-26T06:44:53.010Z,14.31
2017-07-26T06:46:03.516Z,14.31
2017-07-26T06:47:13.990Z,14.28
2017-07-26T06:48:24.519Z,14.24
2017-07-26T06:49:34.638Z,14.25
2017-07-26T06:50:45.415Z,14.28
2017-07-26T06:51:55.946Z,14.37
2017-07-26T06:53:06.416Z,14.36
2017-07-26T06:54:16.949Z,14.39
2017-07-26T06:55:27.404Z,14.26
2017-07-26T06:56:38.146Z,14.26
2017-07-26T06:57:48.635Z,14.28
2017-07-26T06:58:59.115Z,14.29
2017-07-26T07:00:09.576Z,14.21
2017-07-26T07:01:20.058Z,14.21
2017-07-26T07:02:31.047Z,14.29
2017-07-26T07:03:41.513Z,14.31
2017-07-26T07:04:51.972Z,14.25
2017-07-26T07:06:02.451Z,14.22
2017-07-26T07:07:12.910Z,14.26
2017-07-26T07:08:23.678Z,14.22
2017-07-26T07:09:34.150Z,14.26
2017-07-26T07:10:44.298Z,14.24
2017-07-26T07:11:54.843Z,14.28
2017-07-26T07:13:05.336Z,14.25
2017-07-26T07:14:16.268Z,14.24
2017-07-26T07:15:26.782Z,14.22
2017-07-26T07:16:37.251Z,14.21
2017-07-26T07:17:48.370Z,14.21
2017-07-26T07:18:58.530Z,14.22
2017-07-26T07:20:09.249Z,14.16
2017-07-26T07:21:19.729Z,14.13
2017-07-26T07:22:30.198Z,14.19
2017-07-26T07:23:40.692Z,14.19
2017-07-26T07:24:51.452Z,14.21
2017-07-26T07:26:02.160Z,14.21
2017-07-26T07:27:12.267Z,14.22
2017-07-26T07:28:22.742Z,14.22
2017-07-26T07:29:33.346Z,14.25
2017-07-26T07:30:43.811Z,14.24
2017-07-26T07:31:54.522Z,14.28
2017-07-26T07:33:05.044Z,14.24
2017-07-26T07:34:15.524Z,14.22
2017-07-26T07:35:26.031Z,14.28
2017-07-26T07:36:36.685Z,14.24
2017-07-26T07:37:47.397Z,14.29
2017-07-26T07:38:57.866Z,14.24
2017-07-26T07:40:08.305Z,14.24
2017-07-26T07:41:18.500Z,14.26
2017-07-26T07:42:28.975Z,14.24
2017-07-26T07:43:39.752Z,14.26
2017-07-26T07:44:50.237Z,14.25
2017-07-26T07:46:00.720Z,14.22
2017-07-26T07:47:11.621Z,14.19
2017-07-26T07:48:21.733Z,14.34
2017-07-26T07:49:32.665Z,14.24
2017-07-26T07:50:43.392Z,14.43
2017-07-26T07:51:54.078Z,14.32
2017-07-26T07:53:04.551Z,14.4
2017-07-26T07:54:15.022Z,14.37
2017-07-26T07:55:25.777Z,14.36
2017-07-26T07:56:36.251Z,14.32
2017-07-26T07:57:46.719Z,14.44
2017-07-26T07:58:57.181Z,14.34
2017-07-26T08:00:08.037Z,14.43
2017-07-26T08:01:18.771Z,14.43
2017-07-26T08:02:29.492Z,14.56
2017-07-26T08:03:40.048Z,14.51
2017-07-26T08:04:50.597Z,14.52
2017-07-26T08:06:01.059Z,14.52
2017-07-26T08:07:11.970Z,14.56
2017-07-26T08:08:22.419Z,14.65
2017-07-26T08:09:32.877Z,14.66
2017-07-26T08:10:43.382Z,14.7
2017-07-26T08:11:53.838Z,14.67
2017-07-26T08:13:04.572Z,14.69
2017-07-26T08:14:15.037Z,14.72
2017-07-26T08:15:25.700Z,14.75
2017-07-26T08:16:36.204Z,14.8
2017-07-26T08:17:46.669Z,14.87
2017-07-26T08:18:57.434Z,14.85
2017-07-26T08:20:07.945Z,14.95
2017-07-26T08:21:18.420Z,14.88
2017-07-26T08:22:29.011Z,14.93
2017-07-26T08:23:39.174Z,14.91
2017-07-26T08:24:49.933Z,14.87
2017-07-26T08:26:00.437Z,14.93
2017-07-26T08:27:10.922Z,14.98
2017-07-26T08:28:21.420Z,14.96
2017-07-26T08:29:32.127Z,15
2017-07-26T08:30:43.043Z,15
2017-07-26T08:31:53.398Z,15.05
2017-07-26T08:33:03.892Z,14.98
2017-07-26T08:34:14.682Z,15.05
2017-07-26T08:35:25.367Z,15.08
2017-07-26T08:36:36.289Z,15.11
2017-07-26T08:37:46.748Z,15.09
2017-07-26T08:38:57.232Z,15.09
2017-07-26T08:40:07.761Z,15.15
2017-07-26T08:41:18.197Z,15.11
2017-07-26T08:42:28.630Z,15.11
2017-07-26T08:43:39.092Z,15.15
2017-07-26T08:44:49.588Z,15.03
2017-07-26T08:46:00.089Z,15.11
2017-07-26T08:47:10.610Z,15.09
2017-07-26T08:48:21.381Z,15.15
2017-07-26T08:49:31.908Z,15.14
2017-07-26T08:50:42.503Z,15.23
2017-07-26T08:51:53.332Z,15.21
2017-07-26T08:53:03.805Z,15.21
2017-07-26T08:54:14.738Z,15.23
2017-07-26T08:55:25.228Z,15.11
2017-07-26T08:56:35.881Z,15.27
2017-07-26T08:57:46.337Z,15.27
2017-07-26T08:58:56.810Z,15.29
2017-07-26T09:00:07.716Z,15.21
2017-07-26T09:01:18.548Z,15.24
2017-07-26T09:02:29.069Z,15.29
2017-07-26T09:03:39.567Z,15.36
2017-07-26T09:04:50.134Z,15.39
2017-07-26T09:06:00.886Z,15.36
2017-07-26T09:07:11.402Z,15.4
2017-07-26T09:08:21.848Z,15.35
2017-07-26T09:09:32.323Z,15.48
2017-07-26T09:10:42.435Z,15.4
2017-07-26T09:11:53.403Z,15.46
2017-07-26T09:13:03.929Z,15.48
2017-07-26T09:14:14.000Z,15.45
2017-07-26T09:15:24.479Z,15.42
2017-07-26T09:16:35.182Z,15.43
2017-07-26T09:17:46.266Z,15.39
2017-07-26T09:18:56.811Z,15.43
2017-07-26T09:20:07.393Z,15.5
2017-07-26T09:21:17.898Z,15.54
2017-07-26T09:22:28.390Z,15.54
2017-07-26T09:23:39.106Z,15.57
2017-07-26T09:24:49.590Z,15.55
2017-07-26T09:25:59.647Z,15.58
2017-07-26T09:27:10.237Z,15.5
2017-07-26T09:28:20.736Z,15.57
2017-07-26T09:29:31.448Z,15.53
2017-07-26T09:30:42.135Z,15.51
2017-07-26T09:31:52.829Z,15.55
2017-07-26T09:33:03.288Z,15.51
2017-07-26T09:34:13.791Z,15.64
2017-07-26T09:35:24.823Z,15.61
2017-07-26T09:36:34.996Z,15.55
2017-07-26T09:37:45.590Z,15.63
2017-07-26T09:38:56.306Z,15.58
2017-07-26T09:40:06.821Z,15.55
2017-07-26T09:41:17.786Z,15.54
2017-07-26T09:42:28.330Z,15.6
2017-07-26T09:43:38.959Z,15.54
2017-07-26T09:44:49.478Z,15.61
2017-07-26T09:45:59.718Z,15.69
2017-07-26T09:47:10.458Z,15.66
2017-07-26T09:48:20.930Z,15.6
2017-07-26T09:49:31.451Z,15.58
2017-07-26T09:50:42.154Z,15.61
2017-07-26T09:51:52.659Z,15.54
2017-07-26T09:53:03.416Z,15.55
2017-07-26T09:54:13.894Z,15.54
2017-07-26T09:55:24.438Z,15.5
2017-07-26T09:56:34.917Z,15.61
2017-07-26T09:57:45.429Z,15.58
2017-07-26T09:58:56.238Z,15.61
2017-07-26T10:00:06.966Z,15.66
2017-07-26T10:01:17.475Z,15.68
2017-07-26T10:02:28.037Z,15.69
2017-07-26T10:03:38.519Z,15.64
2017-07-26T10:04:49.241Z,15.69
2017-07-26T10:05:59.750Z,15.63
2017-07-26T10:07:10.253Z,15.72
2017-07-26T10:08:20.942Z,15.66
2017-07-26T10:09:31.402Z,15.68
2017-07-26T10:10:42.134Z,15.72
2017-07-26T10:11:52.633Z,15.73
2017-07-26T10:13:03.122Z,15.76
2017-07-26T10:14:13.576Z,15.84
2017-07-26T10:15:24.080Z,15.8
2017-07-26T10:16:34.863Z,15.84
2017-07-26T10:17:45.364Z,15.84
2017-07-26T10:18:56.112Z,15.84
2017-07-26T10:20:06.612Z,15.88
2017-07-26T10:21:17.147Z,15.92
2017-07-26T10:22:27.706Z,15.88
2017-07-26T10:23:38.179Z,15.8
2017-07-26T10:24:48.660Z,15.98
2017-07-26T10:25:59.174Z,15.94
2017-07-26T10:27:09.860Z,16.02
2017-07-26T10:28:20.644Z,15.99
2017-07-26T10:29:31.316Z,16.04
2017-07-26T10:30:41.844Z,16.1
2017-07-26T10:31:52.344Z,16.1
2017-07-26T10:33:03.045Z,16.19
2017-07-26T10:34:13.785Z,16.28
2017-07-26T10:35:24.375Z,16.36
2017-07-26T10:36:34.854Z,16.35
2017-07-26T10:37:45.466Z,16.38
2017-07-26T10:38:55.927Z,16.43
2017-07-26T10:40:06.826Z,16.46
2017-07-26T10:41:16.879Z,16.39
2017-07-26T10:42:27.028Z,16.47
2017-07-26T10:43:37.545Z,16.51
2017-07-26T10:44:48.014Z,16.47
2017-07-26T10:45:58.747Z,16.46
2017-07-26T10:47:09.257Z,16.44
2017-07-26T10:48:20.229Z,16.47
2017-07-26T10:49:30.245Z,16.53
2017-07-26T10:50:40.590Z,16.51
2017-07-26T10:51:51.330Z,16.5
2017-07-26T10:53:01.811Z,16.54
2017-07-26T10:54:12.341Z,16.57
2017-07-26T10:55:22.851Z,16.56
2017-07-26T10:56:33.351Z,16.57
2017-07-26T10:57:44.075Z,16.59
2017-07-26T10:58:54.677Z,16.71
2017-07-26T11:00:05.185Z,16.79
2017-07-26T11:01:15.678Z,16.76
2017-07-26T11:02:26.187Z,16.87
2017-07-26T11:03:36.918Z,16.9
2017-07-26T11:04:47.489Z,16.93
2017-07-26T11:05:58.123Z,16.99
2017-07-26T11:07:07.986Z,16.99
2017-07-26T11:08:18.168Z,16.99
2017-07-26T11:09:28.924Z,16.94
2017-07-26T11:10:39.535Z,16.94
2017-07-26T11:11:50.112Z,17.04
2017-07-26T11:13:00.576Z,16.99
2017-07-26T11:14:11.118Z,16.98
2017-07-26T11:15:21.836Z,17.12
2017-07-26T11:16:32.336Z,17.09
2017-07-26T11:17:42.834Z,17.02
2017-07-26T11:18:53.317Z,17.09
2017-07-26T11:20:04.075Z,17.08
2017-07-26T11:21:14.812Z,17.05
2017-07-26T11:22:25.567Z,17.19
2017-07-26T11:23:36.017Z,17.38
2017-07-26T11:24:46.511Z,17.43
2017-07-26T11:25:56.915Z,17.49
2017-07-26T11:27:07.718Z,17.72
2017-07-26T11:28:18.264Z,17.89
2017-07-26T11:29:28.799Z,18.01
2017-07-26T11:30:39.508Z,18.15
2017-07-26T11:31:50.001Z,18.28
2017-07-26T11:33:00.896Z,18.25
2017-07-26T11:34:11.382Z,18.26
2017-07-26T11:35:21.944Z,18.35
2017-07-26T11:36:32.429Z,18.32
2017-07-26T11:37:42.907Z,18.28
2017-07-26T11:38:53.657Z,18.35
2017-07-26T11:40:04.129Z,18.37
2017-07-26T11:41:14.642Z,18.4
2017-07-26T11:42:25.198Z,18.32
2017-07-26T11:43:35.859Z,18.4
2017-07-26T11:44:46.608Z,18.57
2017-07-26T11:45:57.142Z,18.59
2017-07-26T11:47:07.645Z,18.59
2017-07-26T11:48:18.128Z,18.56
2017-07-26T11:49:28.666Z,18.65
2017-07-26T11:50:39.448Z,18.56
2017-07-26T11:51:49.951Z,18.62
2017-07-26T11:53:00.140Z,18.57
2017-07-26T11:54:10.791Z,18.62
2017-07-26T11:55:21.257Z,18.6
2017-07-26T11:56:32.120Z,18.67
2017-07-26T11:57:42.622Z,18.57
2017-07-26T11:58:53.153Z,18.49
2017-07-26T12:00:03.838Z,18.42
2017-07-26T12:01:14.347Z,18.35
2017-07-26T12:02:25.165Z,18.22
2017-07-26T12:03:36.169Z,18.15
2017-07-26T12:04:46.671Z,18.09
2017-07-26T12:05:57.079Z,18.01
2017-07-26T12:07:07.695Z,17.95
2017-07-26T12:08:18.404Z,18
2017-07-26T12:09:28.892Z,18.04
2017-07-26T12:10:39.385Z,18.02
2017-07-26T12:11:49.891Z,17.97
2017-07-26T12:13:00.503Z,18.02
2017-07-26T12:14:11.282Z,18.1
2017-07-26T12:15:21.753Z,18.22
2017-07-26T12:16:32.465Z,18.34
2017-07-26T12:17:43.021Z,18.46
2017-07-26T12:18:53.769Z,18.46
2017-07-26T12:20:04.504Z,18.57
2017-07-26T12:21:15.009Z,18.69
2017-07-26T12:22:26.467Z,18.67
2017-07-26T12:23:36.496Z,18.82
2017-07-26T12:24:47.250Z,18.87
2017-07-26T12:25:58.000Z,18.91
2017-07-26T12:27:08.468Z,18.86
2017-07-26T12:28:18.652Z,18.86
2017-07-26T12:29:29.128Z,18.86
2017-07-26T12:30:39.684Z,18.94
2017-07-26T12:31:50.441Z,18.9
2017-07-26T12:33:00.653Z,18.93
2017-07-26T12:34:11.155Z,18.95
2017-07-26T12:35:21.304Z,18.97
2017-07-26T12:36:31.791Z,19.12
2017-07-26T12:37:42.574Z,19.02
2017-07-26T12:38:53.098Z,19.1
2017-07-26T12:40:03.888Z,19.02
2017-07-26T12:41:14.410Z,18.94
2017-07-26T12:42:24.995Z,18.95
2017-07-26T12:43:35.720Z,18.94
2017-07-26T12:44:46.228Z,18.84
2017-07-26T12:45:56.935Z,18.78
2017-07-26T12:47:07.408Z,18.62
2017-07-26T12:48:17.901Z,18.72
2017-07-26T12:49:28.677Z,18.6
2017-07-26T12:50:39.118Z,18.46
2017-07-26T12:51:49.575Z,18.46
2017-07-26T12:53:00.101Z,18.47
2017-07-26T12:54:10.287Z,18.5
2017-07-26T12:55:21.037Z,18.53
2017-07-26T12:56:31.597Z,18.57
2017-07-26T12:57:42.335Z,18.62
2017-07-26T12:58:52.930Z,18.49
2017-07-26T13:00:03.389Z,18.5
2017-07-26T13:01:14.437Z,18.52
2017-07-26T13:02:24.944Z,18.44
2017-07-26T13:03:35.437Z,18.52
2017-07-26T13:04:45.894Z,18.55
2017-07-26T13:05:56.411Z,18.53
2017-07-26T13:07:07.140Z,18.56
2017-07-26T13:08:17.873Z,18.6
2017-07-26T13:09:28.352Z,18.63
2017-07-26T13:10:38.927Z,18.71
2017-07-26T13:11:49.426Z,18.73
2017-07-26T13:13:00.186Z,18.8
2017-07-26T13:14:10.853Z,18.86
2017-07-26T13:15:21.567Z,18.76
2017-07-26T13:16:32.064Z,18.82
2017-07-26T13:17:42.598Z,18.78
2017-07-26T13:18:52.890Z,18.75
2017-07-26T13:20:03.393Z,18.67
2017-07-26T13:21:14.510Z,18.75
2017-07-26T13:22:24.969Z,18.73
2017-07-26T13:23:35.534Z,18.71
2017-07-26T13:24:46.288Z,18.69
2017-07-26T13:25:56.779Z,18.69
2017-07-26T13:27:06.943Z,18.69
2017-07-26T13:28:17.110Z,18.69
2017-07-26T13:29:27.679Z,18.72
2017-07-26T13:30:38.403Z,18.59
2017-07-26T13:31:48.893Z,18.55
2017-07-26T13:32:59.089Z,18.56
2017-07-26T13:34:09.585Z,18.57
2017-07-26T13:35:20.084Z,18.63
2017-07-26T13:36:30.823Z,18.69
2017-07-26T13:37:41.558Z,18.6
2017-07-26T13:38:52.052Z,18.65
2017-07-26T13:40:02.612Z,18.67
2017-07-26T13:41:13.118Z,18.69
2017-07-26T13:42:23.874Z,18.75
2017-07-26T13:43:34.369Z,18.72
2017-07-26T13:44:44.955Z,18.78
2017-07-26T13:45:55.451Z,18.86
2017-07-26T13:47:05.683Z,18.9
2017-07-26T13:48:16.403Z,18.9
2017-07-26T13:49:26.954Z,18.97
2017-07-26T13:50:37.686Z,18.82
2017-07-26T13:51:48.170Z,18.9
2017-07-26T13:52:58.665Z,18.91
2017-07-26T13:54:09.490Z,18.94
2017-07-26T13:55:19.995Z,18.94
2017-07-26T13:56:30.587Z,18.98
2017-07-26T13:57:40.759Z,18.95
2017-07-26T13:58:51.496Z,18.95
2017-07-26T14:00:02.516Z,18.98
2017-07-26T14:01:13.083Z,19.03
2017-07-26T14:02:23.587Z,19.05
2017-07-26T14:03:33.797Z,19.06
2017-07-26T14:04:44.304Z,19.03
2017-07-26T14:05:55.102Z,19
2017-07-26T14:07:05.798Z,19.03
2017-07-26T14:08:16.453Z,18.98
2017-07-26T14:09:26.990Z,18.97
2017-07-26T14:10:37.505Z,19.13
2017-07-26T14:11:48.228Z,19.06
2017-07-26T14:12:58.820Z,19.1
2017-07-26T14:14:09.390Z,19.1
2017-07-26T14:15:20.003Z,19.1
2017-07-26T14:16:30.498Z,19.12
2017-07-26T14:17:41.344Z,19.19
2017-07-26T14:18:51.606Z,19.13
2017-07-26T14:20:02.153Z,19.16
2017-07-26T14:21:12.610Z,19.19
2017-07-26T14:22:23.608Z,19.15
2017-07-26T14:23:34.552Z,19.16
2017-07-26T14:24:45.044Z,19.24
2017-07-26T14:25:55.732Z,19.25
2017-07-26T14:27:06.443Z,19.3
2017-07-26T14:28:17.052Z,19.28
2017-07-26T14:29:27.841Z,19.24
2017-07-26T14:30:38.346Z,19.31
2017-07-26T14:31:48.909Z,19.3
2017-07-26T14:32:59.474Z,19.34
2017-07-26T14:34:09.960Z,19.37
2017-07-26T14:35:20.398Z,19.33
2017-07-26T14:36:30.981Z,19.42
2017-07-26T14:37:41.472Z,19.4
2017-07-26T14:38:52.187Z,19.39
2017-07-26T14:40:02.698Z,19.33
2017-07-26T14:41:13.550Z,19.35
2017-07-26T14:42:24.067Z,19.31
2017-07-26T14:43:34.613Z,19.34
2017-07-26T14:44:45.352Z,19.4
2017-07-26T14:45:56.038Z,19.45
2017-07-26T14:47:06.839Z,19.31
2017-07-26T14:48:17.326Z,19.31
2017-07-26T14:49:27.864Z,19.31
2017-07-26T14:50:38.016Z,19.34
2017-07-26T14:51:48.623Z,19.33
2017-07-26T14:52:59.333Z,19.46
2017-07-26T14:54:10.057Z,19.46
2017-07-26T14:55:20.109Z,19.49
2017-07-26T14:56:30.628Z,19.55
2017-07-26T14:57:40.915Z,19.64
2017-07-26T14:58:51.602Z,19.67
2017-07-26T15:00:02.122Z,19.61
2017-07-26T15:01:13.415Z,19.71
2017-07-26T15:02:23.935Z,19.76
2017-07-26T15:03:34.448Z,19.82
2017-07-26T15:04:44.892Z,19.68
2017-07-26T15:05:55.500Z,19.68
2017-07-26T15:07:06.033Z,19.82
2017-07-26T15:08:16.612Z,19.79
2017-07-26T15:09:27.130Z,19.86
2017-07-26T15:10:37.907Z,19.76
2017-07-26T15:11:48.603Z,19.85
2017-07-26T15:12:59.106Z,19.74
2017-07-26T15:14:09.624Z,19.78
2017-07-26T15:15:20.131Z,19.74
2017-07-26T15:16:30.909Z,19.73
2017-07-26T15:17:41.511Z,19.73
2017-07-26T15:18:51.982Z,19.76
2017-07-26T15:20:02.479Z,19.76
2017-07-26T15:21:12.973Z,19.8
2017-07-26T15:22:23.739Z,19.8
2017-07-26T15:23:34.322Z,19.79